createdAt,value
2022-10-13T00:00:13.946Z,1.35
2022-10-13T00:02:41.050Z,1.38
2022-10-13T00:05:08.201Z,1.63
2022-10-13T00:07:35.136Z,1.73
2022-10-13T00:10:02.105Z,1.40
2022-10-13T00:12:28.980Z,1.30
2022-10-13T00:14:55.882Z,1.27
2022-10-13T00:17:22.828Z,1.20
2022-10-13T00:19:49.702Z,1.25
2022-10-13T00:22:17.043Z,1.33
2022-10-13T00:24:44.254Z,1.40
2022-10-13T00:27:11.252Z,0.98
2022-10-13T00:29:38.212Z,1.10
2022-10-13T00:32:05.188Z,1.10
2022-10-13T00:34:32.037Z,1.08
2022-10-13T00:36:58.885Z,1.20
2022-10-13T00:39:25.749Z,1.50
2022-10-13T00:41:54.513Z,1.30
2022-10-13T00:44:58.946Z,1.20
2022-10-13T00:47:27.018Z,1.35
2022-10-13T00:49:53.858Z,1.42
2022-10-13T00:52:21.027Z,1.40
2022-10-13T00:54:48.266Z,1.50
2022-10-13T00:57:15.106Z,1.45
2022-10-13T00:59:42.081Z,1.10
2022-10-13T01:02:09.588Z,1.35
2022-10-13T01:04:43.692Z,1.20
2022-10-13T01:07:10.872Z,1.23
2022-10-13T01:09:37.991Z,1.10
2022-10-13T01:12:23.206Z,1.33
2022-10-13T01:14:53.013Z,1.20
2022-10-13T01:17:23.027Z,1.02
2022-10-13T01:19:58.762Z,1.02
2022-10-13T01:23:06.882Z,0.80
2022-10-13T01:25:52.758Z,1.00
2022-10-13T01:29:10.160Z,1.27
2022-10-13T01:32:05.866Z,0.90
2022-10-13T01:34:51.316Z,1.08
2022-10-13T01:37:31.741Z,1.27
2022-10-13T01:40:05.578Z,0.77
2022-10-13T01:47:34.088Z,1.15
2022-10-13T01:50:00.983Z,1.48
2022-10-13T01:52:31.327Z,1.33
2022-10-13T01:54:58.272Z,1.38
2022-10-13T01:57:33.619Z,1.10
2022-10-13T02:00:08.049Z,1.15
2022-10-13T02:02:43.945Z,1.40
2022-10-13T02:05:29.160Z,0.88
2022-10-13T02:08:33.069Z,0.85
2022-10-13T02:11:21.180Z,1.02
2022-10-13T02:14:14.076Z,1.00
2022-10-13T02:16:43.821Z,1.05
2022-10-13T02:19:12.932Z,0.95
2022-10-13T02:21:41.397Z,0.93
2022-10-13T02:24:08.582Z,0.95
2022-10-13T02:26:35.655Z,1.27
2022-10-13T02:29:09.849Z,1.10
2022-10-13T02:31:36.977Z,1.23
2022-10-13T02:34:04.069Z,0.88
2022-10-13T02:36:31.372Z,2.08
2022-10-13T02:38:58.310Z,1.27
2022-10-13T02:41:25.226Z,1.13
2022-10-13T02:43:52.122Z,0.98
2022-10-13T02:46:19.051Z,0.98
2022-10-13T02:48:46.024Z,1.80
2022-10-13T02:51:13.082Z,1.20
2022-10-13T02:53:40.030Z,1.20
2022-10-13T02:56:07.802Z,1.30
2022-10-13T02:58:37.155Z,1.13
2022-10-13T03:01:08.508Z,0.90
2022-10-13T03:03:35.611Z,1.20
2022-10-13T03:06:02.849Z,1.10
2022-10-13T03:08:29.757Z,0.82
2022-10-13T03:10:57.991Z,0.82
2022-10-13T03:13:24.838Z,1.00
2022-10-13T03:15:51.807Z,0.80
2022-10-13T03:18:18.722Z,0.95
2022-10-13T03:20:45.594Z,1.02
2022-10-13T03:23:12.470Z,1.00
2022-10-13T03:25:39.361Z,0.90
2022-10-13T03:28:06.183Z,1.23
2022-10-13T03:30:33.064Z,0.90
2022-10-13T03:32:59.912Z,1.08
2022-10-13T03:35:29.615Z,1.13
2022-10-13T03:37:56.544Z,1.00
2022-10-13T03:40:23.686Z,0.90
2022-10-13T03:42:50.569Z,0.90
2022-10-13T03:45:17.579Z,1.05
2022-10-13T03:47:44.691Z,1.08
2022-10-13T03:50:11.586Z,1.30
2022-10-13T03:52:38.434Z,1.30
2022-10-13T03:55:05.812Z,1.00
2022-10-13T03:57:32.630Z,1.02
2022-10-13T04:00:00.111Z,1.23
2022-10-13T04:02:27.010Z,1.20
2022-10-13T04:04:54.140Z,0.88
2022-10-13T04:07:21.120Z,1.02
2022-10-13T04:09:48.038Z,1.27
2022-10-13T04:12:19.759Z,1.30
2022-10-13T04:14:47.567Z,1.17
2022-10-13T04:17:14.525Z,1.10
2022-10-13T04:19:41.388Z,1.30
2022-10-13T04:22:08.468Z,1.83
2022-10-13T04:24:35.359Z,1.60
2022-10-13T04:27:02.257Z,1.10
2022-10-13T04:29:29.189Z,1.40
2022-10-13T04:31:56.066Z,0.93
2022-10-13T04:34:22.926Z,1.13
2022-10-13T04:36:51.811Z,1.42
2022-10-13T04:39:18.866Z,1.55
2022-10-13T04:41:45.693Z,1.27
2022-10-13T04:44:13.844Z,1.40
2022-10-13T04:46:40.770Z,1.83
2022-10-13T04:49:07.645Z,1.20
2022-10-13T04:51:34.824Z,1.58
2022-10-13T04:54:02.307Z,1.23
2022-10-13T04:56:29.279Z,1.48
2022-10-13T04:58:56.141Z,1.40
2022-10-13T05:01:24.868Z,1.65
2022-10-13T05:03:54.249Z,1.05
2022-10-13T05:06:28.741Z,1.25
2022-10-13T05:08:56.088Z,1.40
2022-10-13T05:11:24.300Z,1.48
2022-10-13T05:13:51.252Z,1.60
2022-10-13T05:16:18.902Z,1.35
2022-10-13T05:18:45.774Z,1.90
2022-10-13T05:21:14.091Z,1.27
2022-10-13T05:23:41.765Z,1.88
2022-10-13T05:26:10.646Z,2.00
2022-10-13T05:28:37.734Z,2.20
2022-10-13T05:31:31.370Z,2.03
2022-10-13T05:34:01.771Z,2.17
2022-10-13T05:36:33.171Z,2.30
2022-10-13T05:39:04.650Z,2.00
2022-10-13T05:41:31.655Z,2.35
2022-10-13T05:44:02.881Z,2.00
2022-10-13T05:46:29.779Z,2.08
2022-10-13T05:49:00.112Z,2.50
2022-10-13T05:51:36.989Z,2.10
2022-10-13T05:54:17.424Z,1.77
2022-10-13T05:56:57.947Z,2.08
2022-10-13T05:59:27.227Z,2.38
2022-10-13T06:01:54.574Z,2.30
2022-10-13T06:04:25.928Z,2.00
2022-10-13T06:06:54.055Z,2.95
2022-10-13T06:09:23.625Z,2.10
2022-10-13T06:11:51.059Z,2.00
2022-10-13T06:14:18.172Z,1.77
2022-10-13T06:16:47.656Z,2.03
2022-10-13T06:19:18.456Z,2.20
2022-10-13T06:21:45.770Z,1.83
2022-10-13T06:24:13.204Z,2.05
2022-10-13T06:26:40.025Z,2.15
2022-10-13T06:29:06.935Z,2.15
2022-10-13T06:31:33.836Z,1.73
2022-10-13T06:34:00.765Z,1.88
2022-10-13T06:36:27.818Z,2.10
2022-10-13T06:38:54.777Z,2.00
2022-10-13T06:41:21.705Z,2.20
2022-10-13T06:43:51.949Z,2.05
2022-10-13T06:46:18.745Z,2.65
2022-10-13T06:52:46.766Z,1.90
2022-10-13T06:58:50.941Z,2.65
2022-10-13T07:25:36.588Z,2.42
2022-10-13T07:55:23.230Z,3.25
2022-10-13T07:58:41.282Z,3.95
2022-10-13T08:13:48.857Z,4.43
2022-10-13T08:16:58.957Z,4.45
2022-10-13T08:19:26.955Z,2.97
2022-10-13T08:22:30.318Z,3.97
2022-10-13T08:25:38.883Z,4.57
2022-10-13T08:32:15.992Z,4.38
2022-10-13T08:35:25.017Z,4.95
2022-10-13T08:53:51.786Z,4.45
2022-10-13T09:01:00.783Z,2.75
2022-10-13T09:03:29.127Z,2.20
2022-10-13T09:06:01.966Z,2.60
2022-10-13T09:08:29.645Z,2.00
2022-10-13T09:10:57.550Z,2.17
2022-10-13T09:20:04.916Z,1.70
2022-10-13T09:33:56.883Z,1.80
2022-10-13T09:36:27.930Z,1.80
2022-10-13T09:40:13.483Z,1.77
2022-10-13T09:45:30.650Z,1.40
2022-10-13T09:48:15.382Z,0.95
2022-10-13T09:51:37.659Z,1.23
2022-10-13T09:53:40.565Z,1.08
2022-10-13T10:00:31.068Z,1.10
2022-10-13T10:03:22.538Z,1.08
2022-10-13T10:09:02.614Z,1.50
2022-10-13T10:11:46.440Z,1.40
2022-10-13T10:15:17.555Z,2.00
2022-10-13T10:17:57.464Z,1.38
2022-10-13T10:22:13.763Z,1.48
2022-10-13T10:31:35.937Z,0.98
2022-10-13T10:34:32.162Z,0.65
2022-10-13T10:38:03.038Z,0.80
2022-10-13T10:48:22.948Z,0.57
2022-10-13T11:03:09.041Z,1.17
2022-10-13T11:09:47.010Z,1.25
2022-10-13T11:12:20.149Z,2.55
2022-10-13T11:14:59.631Z,3.35
2022-10-13T11:17:39.321Z,2.53
2022-10-13T11:20:21.149Z,2.72
2022-10-13T11:22:59.772Z,2.63
2022-10-13T11:25:48.962Z,2.38
2022-10-13T11:28:22.276Z,2.17
2022-10-13T11:30:50.596Z,2.38
2022-10-13T11:33:52.228Z,3.70
2022-10-13T11:36:52.140Z,2.55
2022-10-13T11:48:28.819Z,1.85
2022-10-13T12:02:05.688Z,2.17
2022-10-13T12:04:32.939Z,2.00
2022-10-13T12:07:13.193Z,2.22
2022-10-13T12:10:04.656Z,1.38
2022-10-13T12:12:37.452Z,1.38
2022-10-13T12:15:34.080Z,2.13
2022-10-13T12:18:01.078Z,2.00
2022-10-13T12:20:30.009Z,1.48
2022-10-13T12:22:57.131Z,1.50
2022-10-13T12:25:28.617Z,1.92
2022-10-13T12:42:18.930Z,1.75
2022-10-13T13:03:07.322Z,1.02
2022-10-13T13:05:12.520Z,0.90
2022-10-13T14:42:56.921Z,0.63
2022-10-13T14:45:23.957Z,0.60
2022-10-13T14:47:56.410Z,0.60
2022-10-13T14:50:37.597Z,0.43
2022-10-13T14:53:17.754Z,0.65
2022-10-13T14:56:11.019Z,0.77
2022-10-13T14:58:40.093Z,0.77
2022-10-13T15:01:20.871Z,0.80
2022-10-13T15:22:32.820Z,1.10
2022-10-13T15:29:07.183Z,1.08
2022-10-13T15:33:33.167Z,0.77
2022-10-13T15:36:08.012Z,1.00
2022-10-13T15:38:54.958Z,0.90
2022-10-13T15:41:35.562Z,1.00
2022-10-13T15:49:02.100Z,0.75
2022-10-13T15:51:43.771Z,0.82
2022-10-13T15:54:21.413Z,0.77
2022-10-13T15:56:56.094Z,0.60
2022-10-13T15:59:26.356Z,0.57
2022-10-13T16:04:47.324Z,0.50
2022-10-13T16:07:16.585Z,0.60
2022-10-13T16:09:46.414Z,0.57
2022-10-13T16:12:48.319Z,0.70
2022-10-13T16:15:29.602Z,0.82
2022-10-13T16:17:56.959Z,0.60
2022-10-13T16:25:16.775Z,0.90
2022-10-13T16:28:32.099Z,0.85
2022-10-13T16:31:05.235Z,0.95
2022-10-13T16:33:55.630Z,0.90
2022-10-13T16:36:41.409Z,0.50
2022-10-13T16:39:10.410Z,1.10
2022-10-13T16:45:06.658Z,0.90
2022-10-13T16:52:47.645Z,1.00
2022-10-13T16:59:17.076Z,0.70
2022-10-13T17:01:50.651Z,0.85
2022-10-13T17:04:32.709Z,0.93
2022-10-13T17:07:02.088Z,0.98
2022-10-13T17:09:28.919Z,1.08
2022-10-13T17:11:55.787Z,1.73
2022-10-13T17:14:22.660Z,1.30
2022-10-13T17:16:52.098Z,1.30
2022-10-13T17:19:21.083Z,0.90
2022-10-13T17:21:48.010Z,1.83
2022-10-13T17:24:16.574Z,1.33
2022-10-13T17:26:52.765Z,1.38
2022-10-13T17:29:41.131Z,0.88
2022-10-13T17:32:48.561Z,1.48
2022-10-13T17:35:18.343Z,1.20
2022-10-13T17:53:44.056Z,1.15
2022-10-13T17:57:01.926Z,1.50
2022-10-13T18:00:48.693Z,1.80
2022-10-13T18:10:20.180Z,1.98
2022-10-13T18:17:11.059Z,2.15
2022-10-13T19:21:23.295Z,3.72
2022-10-13T19:24:39.090Z,3.55
2022-10-13T19:28:03.987Z,3.85
2022-10-13T19:34:54.940Z,3.72
2022-10-13T19:44:31.801Z,3.92
2022-10-13T19:47:23.959Z,3.90
2022-10-13T20:42:15.885Z,3.72
2022-10-13T20:45:00.407Z,3.60
2022-10-13T21:26:39.581Z,3.10
2022-10-13T22:42:46.150Z,3.78
2022-10-13T22:49:26.286Z,3.80
2022-10-13T23:17:49.067Z,2.90
2022-10-13T23:40:38.771Z,3.03
2022-10-13T23:43:17.104Z,3.28
2022-10-13T23:46:43.941Z,2.75
2022-10-13T23:56:07.039Z,3.10
